createdAt,value
2023-03-26T00:01:38.182Z,12.52
2023-03-26T00:04:06.679Z,5.00
2023-03-26T00:06:37.587Z,10.70
2023-03-26T00:09:06.651Z,9.80
2023-03-26T00:11:33.529Z,13.30
2023-03-26T00:14:00.176Z,10.30
2023-03-26T00:16:29.858Z,12.70
2023-03-26T00:18:57.746Z,11.32
2023-03-26T00:21:28.808Z,12.60
2023-03-26T00:23:58.432Z,10.10
2023-03-26T00:26:24.964Z,13.68
2023-03-26T00:28:51.576Z,8.70
2023-03-26T00:31:18.156Z,6.80
2023-03-26T00:33:44.751Z,7.47
2023-03-26T00:36:17.524Z,9.60
2023-03-26T00:38:46.168Z,8.57
2023-03-26T00:41:22.825Z,8.60
2023-03-26T00:43:56.218Z,8.02
2023-03-26T00:46:26.637Z,9.70
2023-03-26T00:48:53.561Z,11.02
2023-03-26T00:51:21.206Z,3.90
2023-03-26T00:53:57.745Z,7.87
2023-03-26T00:56:24.933Z,5.85
2023-03-26T00:58:51.462Z,8.77
2023-03-26T01:01:27.511Z,8.05
2023-03-26T01:04:08.271Z,6.93
2023-03-26T01:06:38.898Z,11.33
2023-03-26T01:09:14.319Z,6.10
2023-03-26T01:11:40.700Z,6.97
2023-03-26T01:14:11.574Z,7.13
2023-03-26T01:16:49.794Z,8.70
2023-03-26T01:19:33.931Z,6.80
2023-03-26T01:22:02.672Z,8.73
2023-03-26T01:24:29.182Z,9.15
2023-03-26T01:27:13.538Z,4.90
2023-03-26T01:29:49.147Z,8.15
2023-03-26T01:32:47.495Z,6.47
2023-03-26T01:35:57.523Z,10.75
2023-03-26T01:38:40.625Z,10.57
2023-03-26T01:41:23.087Z,6.55
2023-03-26T01:44:08.779Z,6.18
2023-03-26T01:46:38.037Z,7.80
2023-03-26T01:49:05.428Z,9.25
2023-03-26T01:51:35.476Z,6.28
2023-03-26T01:54:05.521Z,6.30
2023-03-26T01:56:46.472Z,5.68
2023-03-26T01:59:25.284Z,5.97
2023-03-26T02:02:07.417Z,8.77
2023-03-26T02:05:03.841Z,4.47
2023-03-26T02:07:45.688Z,12.60
2023-03-26T02:10:35.572Z,9.45
2023-03-26T02:13:02.654Z,8.03
2023-03-26T02:15:29.085Z,8.20
2023-03-26T02:17:55.484Z,10.32
2023-03-26T02:20:22.157Z,11.75
2023-03-26T02:22:48.607Z,12.77
2023-03-26T02:25:17.773Z,15.90
2023-03-26T02:27:49.596Z,19.17
2023-03-26T02:30:25.984Z,15.45
2023-03-26T02:32:54.230Z,15.55
2023-03-26T02:35:22.230Z,13.98
2023-03-26T02:37:50.865Z,14.13
2023-03-26T02:40:21.063Z,7.40
2023-03-26T02:42:47.488Z,7.65
2023-03-26T02:45:14.363Z,14.00
2023-03-26T02:47:40.756Z,8.73
2023-03-26T02:50:08.964Z,11.33
2023-03-26T02:52:37.400Z,12.98
2023-03-26T02:55:03.853Z,17.45
2023-03-26T02:57:31.170Z,11.43
2023-03-26T02:59:57.831Z,11.93
2023-03-26T03:02:24.334Z,12.97
2023-03-26T03:04:51.919Z,10.35
2023-03-26T03:07:18.297Z,8.07
2023-03-26T03:09:44.692Z,11.18
2023-03-26T03:12:11.165Z,14.68
2023-03-26T03:14:37.754Z,11.33
2023-03-26T03:17:04.223Z,14.27
2023-03-26T03:19:31.683Z,11.25
2023-03-26T03:21:58.074Z,16.08
2023-03-26T03:24:24.512Z,8.25
2023-03-26T03:26:56.803Z,19.77
2023-03-26T03:29:23.860Z,18.20
2023-03-26T03:31:50.505Z,17.33
2023-03-26T03:34:16.921Z,23.90
2023-03-26T03:36:43.287Z,15.63
2023-03-26T03:39:09.673Z,13.63
2023-03-26T03:41:36.044Z,16.65
2023-03-26T03:44:02.407Z,20.50
2023-03-26T03:46:28.887Z,20.00
2023-03-26T03:48:55.981Z,24.35
2023-03-26T03:51:22.340Z,18.37
2023-03-26T03:53:50.790Z,19.98
2023-03-26T03:56:19.304Z,20.70
2023-03-26T03:58:46.300Z,21.77
2023-03-26T04:01:13.500Z,27.13
2023-03-26T04:03:41.084Z,26.93
2023-03-26T04:06:11.071Z,17.25
2023-03-26T04:08:37.975Z,19.45
2023-03-26T04:11:04.817Z,25.00
2023-03-26T04:13:31.201Z,19.67
2023-03-26T04:15:57.983Z,18.70
2023-03-26T04:18:26.242Z,24.65
2023-03-26T04:20:54.590Z,18.33
2023-03-26T04:23:22.486Z,19.95
2023-03-26T04:25:53.812Z,23.50
2023-03-26T04:28:42.760Z,12.83
2023-03-26T04:31:15.784Z,20.70
2023-03-26T04:33:48.590Z,18.85
2023-03-26T04:36:17.840Z,23.30
2023-03-26T04:38:46.463Z,22.17
2023-03-26T04:41:13.840Z,22.83
2023-03-26T04:43:47.426Z,19.25
2023-03-26T04:46:14.583Z,23.40
2023-03-26T04:48:41.044Z,19.23
2023-03-26T04:51:07.588Z,22.50
2023-03-26T04:53:35.334Z,21.13
2023-03-26T04:56:17.049Z,22.85
2023-03-26T04:58:43.533Z,23.52
2023-03-26T05:01:11.118Z,19.55
2023-03-26T05:03:40.689Z,20.88
2023-03-26T05:06:07.571Z,19.87
2023-03-26T05:08:35.234Z,22.95
2023-03-26T05:11:01.624Z,26.67
2023-03-26T05:13:28.077Z,25.23
2023-03-26T05:15:55.604Z,24.90
2023-03-26T05:18:21.971Z,22.33
2023-03-26T05:20:56.005Z,22.15
2023-03-26T05:23:22.620Z,17.63
2023-03-26T05:25:49.053Z,14.77
2023-03-26T05:28:15.445Z,20.50
2023-03-26T05:30:43.470Z,24.93
2023-03-26T05:33:10.669Z,23.92
2023-03-26T05:35:43.417Z,21.77
2023-03-26T05:38:09.863Z,28.95
2023-03-26T05:40:36.626Z,22.13
2023-03-26T05:43:03.384Z,22.43
2023-03-26T05:45:30.214Z,25.15
2023-03-26T05:47:56.702Z,27.05
2023-03-26T05:50:24.236Z,19.70
2023-03-26T05:52:50.978Z,22.65
2023-03-26T05:55:18.430Z,18.37
2023-03-26T05:57:44.837Z,15.02
2023-03-26T06:00:12.106Z,21.52
2023-03-26T06:02:39.104Z,30.13
2023-03-26T06:05:05.815Z,18.80
2023-03-26T06:07:34.013Z,15.53
2023-03-26T06:10:00.893Z,27.83
2023-03-26T06:12:27.261Z,22.00
2023-03-26T06:14:56.740Z,21.02
2023-03-26T06:17:24.388Z,22.65
2023-03-26T06:19:50.770Z,22.80
2023-03-26T06:22:18.182Z,20.85
2023-03-26T06:24:45.781Z,18.60
2023-03-26T06:27:12.158Z,24.25
2023-03-26T06:29:38.658Z,21.55
2023-03-26T06:32:18.495Z,29.20
2023-03-26T06:34:46.336Z,23.02
2023-03-26T06:37:12.716Z,21.50
2023-03-26T06:39:39.088Z,21.02
2023-03-26T06:42:05.551Z,17.48
2023-03-26T06:44:32.004Z,20.40
2023-03-26T06:46:58.475Z,20.02
2023-03-26T06:49:26.070Z,18.13
2023-03-26T06:51:52.461Z,27.92
2023-03-26T06:54:18.814Z,18.20
2023-03-26T06:56:45.384Z,17.87
2023-03-26T06:59:11.738Z,21.67
2023-03-26T07:01:38.280Z,18.45
2023-03-26T07:04:04.928Z,21.50
2023-03-26T07:06:33.442Z,16.05
2023-03-26T07:08:59.800Z,23.00
2023-03-26T07:11:27.005Z,18.88
2023-03-26T07:13:56.157Z,22.55
2023-03-26T07:16:22.745Z,23.58
2023-03-26T07:18:49.409Z,20.02
2023-03-26T07:21:17.361Z,20.87
2023-03-26T07:23:45.124Z,27.02
2023-03-26T07:26:41.506Z,20.55
2023-03-26T07:29:24.016Z,18.40
2023-03-26T07:32:05.616Z,19.98
2023-03-26T07:34:38.436Z,24.13
2023-03-26T07:37:12.970Z,16.88
2023-03-26T07:39:52.184Z,20.40
2023-03-26T07:42:38.320Z,24.45
2023-03-26T07:45:24.098Z,24.17
2023-03-26T07:47:53.448Z,24.40
2023-03-26T07:50:22.758Z,25.98
2023-03-26T07:52:49.704Z,26.13
2023-03-26T07:55:16.978Z,28.98
2023-03-26T07:57:45.412Z,23.02
2023-03-26T08:00:22.088Z,27.33
2023-03-26T08:03:19.613Z,18.38
2023-03-26T08:06:10.889Z,22.70
2023-03-26T08:08:48.921Z,27.48
2023-03-26T08:11:35.374Z,24.75
2023-03-26T08:14:21.668Z,21.97
2023-03-26T08:17:16.639Z,26.02
2023-03-26T08:19:51.000Z,19.45
2023-03-26T08:22:27.357Z,20.15
2023-03-26T08:25:47.058Z,23.17
2023-03-26T08:28:26.610Z,22.47
2023-03-26T08:30:55.163Z,22.90
2023-03-26T08:33:25.847Z,17.75
2023-03-26T08:35:52.288Z,23.38
2023-03-26T08:38:20.575Z,21.55
2023-03-26T08:41:11.526Z,19.57
2023-03-26T08:44:11.001Z,26.52
2023-03-26T08:46:49.180Z,18.23
2023-03-26T08:49:46.445Z,23.10
2023-03-26T08:52:33.392Z,20.65
2023-03-26T08:55:27.642Z,21.03
2023-03-26T08:58:25.198Z,18.75
2023-03-26T09:01:06.518Z,21.60
2023-03-26T09:04:14.256Z,24.13
2023-03-26T09:07:09.695Z,22.35
2023-03-26T09:10:11.776Z,22.07
2023-03-26T09:13:06.526Z,19.80
2023-03-26T09:15:32.819Z,20.45
2023-03-26T09:18:48.692Z,20.67
2023-03-26T09:21:25.520Z,23.13
2023-03-26T09:24:14.090Z,23.07
2023-03-26T09:27:11.039Z,19.23
2023-03-26T09:30:01.346Z,24.98
2023-03-26T09:32:58.328Z,16.75
2023-03-26T09:35:27.463Z,19.40
2023-03-26T09:38:11.256Z,15.97
2023-03-26T09:40:54.139Z,17.23
2023-03-26T09:43:42.118Z,18.00
2023-03-26T09:46:28.967Z,18.02
2023-03-26T09:49:34.429Z,14.63
2023-03-26T09:52:32.270Z,16.13
2023-03-26T09:55:19.569Z,15.93
2023-03-26T09:58:10.743Z,19.55
2023-03-26T10:01:01.298Z,14.23
2023-03-26T10:03:47.459Z,13.18
2023-03-26T10:06:16.637Z,17.77
2023-03-26T10:09:15.229Z,12.43
2023-03-26T10:11:58.044Z,13.25
2023-03-26T10:14:36.623Z,11.18
2023-03-26T10:17:20.168Z,13.30
2023-03-26T10:20:21.460Z,10.77
2023-03-26T10:23:27.034Z,9.98
2023-03-26T10:26:19.878Z,9.75
2023-03-26T10:29:18.917Z,12.30
2023-03-26T10:32:20.587Z,8.65
2023-03-26T10:35:19.466Z,10.00
2023-03-26T10:38:08.643Z,15.13
2023-03-26T10:40:54.211Z,10.75
2023-03-26T10:44:01.230Z,11.05
2023-03-26T10:46:52.665Z,10.18
2023-03-26T10:49:49.894Z,7.73
2023-03-26T10:52:22.304Z,10.30
2023-03-26T10:54:55.037Z,8.02
2023-03-26T10:57:38.785Z,7.00
2023-03-26T11:00:26.445Z,7.47
2023-03-26T11:03:16.068Z,12.40
2023-03-26T11:06:06.228Z,9.00
2023-03-26T11:08:40.959Z,9.52
2023-03-26T11:11:27.982Z,9.60
2023-03-26T11:14:31.866Z,9.48
2023-03-26T11:17:40.942Z,10.50
2023-03-26T11:20:09.743Z,9.77
2023-03-26T11:22:52.374Z,11.10
2023-03-26T11:25:37.289Z,9.88
2023-03-26T11:28:09.169Z,9.57
2023-03-26T11:30:53.165Z,6.50
2023-03-26T11:33:24.374Z,11.30
2023-03-26T11:35:55.225Z,11.50
2023-03-26T11:38:41.892Z,12.52
2023-03-26T11:41:15.849Z,15.07
2023-03-26T11:44:24.596Z,12.10
2023-03-26T11:46:58.788Z,7.50
2023-03-26T11:49:26.281Z,5.00
2023-03-26T11:51:52.710Z,8.02
2023-03-26T11:54:21.011Z,6.22
2023-03-26T11:57:04.438Z,12.87
2023-03-26T11:59:59.396Z,12.70
2023-03-26T12:02:32.290Z,8.95
2023-03-26T12:05:26.691Z,8.93
2023-03-26T12:08:02.108Z,9.23
2023-03-26T12:10:37.818Z,7.93
2023-03-26T12:13:35.555Z,4.65
2023-03-26T12:16:13.157Z,9.30
2023-03-26T12:18:41.656Z,9.15
2023-03-26T12:21:12.623Z,11.93
2023-03-26T12:24:04.699Z,8.73
2023-03-26T12:26:35.770Z,8.57
2023-03-26T12:29:11.442Z,9.38
2023-03-26T12:32:01.873Z,11.30
2023-03-26T12:34:35.451Z,8.13
2023-03-26T12:37:03.604Z,7.67
2023-03-26T12:40:07.369Z,5.45
2023-03-26T12:44:44.293Z,8.35
2023-03-26T12:45:22.528Z,11.05
2023-03-26T12:48:00.800Z,8.30
2023-03-26T12:51:05.017Z,9.33
2023-03-26T12:53:42.886Z,8.75
2023-03-26T12:56:19.856Z,10.23
2023-03-26T12:59:01.549Z,9.13
2023-03-26T13:01:35.442Z,6.60
2023-03-26T13:04:36.143Z,8.13
2023-03-26T13:07:45.755Z,8.30
2023-03-26T13:10:29.229Z,11.57
2023-03-26T13:13:33.699Z,7.97
2023-03-26T13:16:14.770Z,4.93
2023-03-26T13:19:07.166Z,7.90
2023-03-26T13:22:09.116Z,6.25
2023-03-26T13:24:56.394Z,8.27
2023-03-26T13:27:36.762Z,10.07
2023-03-26T13:30:48.355Z,5.70
2023-03-26T13:33:38.401Z,8.53
2023-03-26T13:36:26.620Z,7.45
2023-03-26T13:39:24.824Z,7.15
2023-03-26T13:42:15.731Z,3.88
2023-03-26T13:45:04.994Z,6.68
2023-03-26T13:47:41.030Z,5.07
2023-03-26T13:50:14.699Z,7.45
2023-03-26T13:52:49.046Z,9.02
2023-03-26T13:55:43.771Z,8.00
2023-03-26T13:58:36.727Z,7.00
2023-03-26T14:01:23.285Z,4.50
2023-03-26T14:04:08.397Z,5.80
2023-03-26T14:06:57.873Z,6.10
2023-03-26T14:09:31.911Z,7.60
2023-03-26T14:12:03.945Z,5.20
2023-03-26T14:14:46.423Z,4.10
2023-03-26T14:17:22.281Z,6.50
2023-03-26T14:20:25.175Z,4.63
2023-03-26T14:23:16.579Z,5.35
2023-03-26T14:26:19.103Z,8.45
2023-03-26T14:29:07.665Z,5.43
2023-03-26T14:31:54.792Z,6.65
2023-03-26T14:34:38.235Z,3.95
2023-03-26T14:37:32.951Z,5.50
2023-03-26T14:40:33.490Z,6.38
2023-03-26T14:43:38.937Z,2.73
2023-03-26T14:46:29.674Z,3.88
2023-03-26T14:49:02.190Z,2.67
2023-03-26T14:51:52.571Z,5.28
2023-03-26T14:54:24.863Z,2.33
2023-03-26T14:57:06.150Z,4.07
2023-03-26T15:00:07.215Z,6.78
2023-03-26T15:03:07.949Z,7.18
2023-03-26T15:05:59.500Z,6.05
2023-03-26T15:09:11.142Z,7.93
2023-03-26T15:12:13.185Z,7.67
2023-03-26T15:14:39.914Z,6.80
2023-03-26T15:17:41.649Z,7.45
2023-03-26T15:20:20.297Z,6.35
2023-03-26T15:23:14.502Z,8.88
2023-03-26T15:25:46.785Z,7.60
2023-03-26T15:28:51.350Z,10.55
2023-03-26T15:31:55.715Z,8.38
2023-03-26T15:34:59.941Z,4.40
2023-03-26T15:38:03.942Z,6.15
2023-03-26T15:41:19.548Z,5.17
2023-03-26T15:47:05.749Z,8.40
2023-03-26T15:49:50.044Z,6.13
2023-03-26T15:52:19.348Z,10.48
2023-03-26T15:54:55.794Z,6.53
2023-03-26T15:57:40.993Z,6.30
2023-03-26T16:00:22.999Z,5.85
2023-03-26T16:03:17.788Z,4.38
2023-03-26T16:05:57.293Z,4.80
2023-03-26T16:08:39.122Z,8.10
2023-03-26T16:11:12.411Z,7.10
2023-03-26T16:13:39.246Z,7.43
2023-03-26T16:16:14.867Z,4.95
2023-03-26T16:18:57.167Z,4.07
2023-03-26T16:21:39.439Z,6.80
2023-03-26T16:24:05.782Z,7.75
2023-03-26T16:26:44.430Z,6.22
2023-03-26T16:29:18.065Z,5.63
2023-03-26T16:32:18.874Z,7.15
2023-03-26T16:34:59.445Z,4.67
2023-03-26T16:37:37.977Z,8.15
2023-03-26T16:40:16.843Z,6.95
2023-03-26T16:43:05.196Z,5.65
2023-03-26T16:45:44.091Z,7.85
2023-03-26T16:48:22.725Z,5.87
2023-03-26T16:51:04.753Z,5.38
2023-03-26T16:53:42.726Z,4.55
2023-03-26T16:56:16.770Z,7.18
2023-03-26T16:59:00.412Z,5.22
2023-03-26T17:01:42.900Z,3.87
2023-03-26T17:04:23.234Z,8.20
2023-03-26T17:07:28.627Z,4.30
2023-03-26T17:10:21.835Z,5.22
2023-03-26T17:13:01.422Z,9.18
2023-03-26T17:15:58.932Z,7.67
2023-03-26T17:18:46.876Z,3.90
2023-03-26T17:21:47.123Z,5.88
2023-03-26T17:24:40.690Z,4.50
2023-03-26T17:27:26.543Z,6.28
2023-03-26T17:30:07.444Z,2.73
2023-03-26T17:32:54.045Z,4.20
2023-03-26T17:35:36.485Z,5.93
2023-03-26T17:38:03.895Z,3.25
2023-03-26T17:40:45.029Z,7.55
2023-03-26T17:43:31.791Z,3.63
2023-03-26T17:46:03.094Z,7.13
2023-03-26T17:48:36.457Z,7.15
2023-03-26T17:51:20.834Z,7.28
2023-03-26T17:53:47.594Z,4.97
2023-03-26T17:56:18.652Z,3.97
2023-03-26T17:58:52.680Z,4.32
2023-03-26T18:01:41.346Z,4.43
2023-03-26T18:04:21.354Z,7.50
2023-03-26T18:07:07.746Z,5.15
2023-03-26T18:09:40.177Z,3.90
2023-03-26T18:12:32.226Z,8.48
2023-03-26T18:15:22.427Z,4.10
2023-03-26T18:17:49.020Z,5.68
2023-03-26T18:20:25.050Z,5.25
2023-03-26T18:22:53.711Z,2.80
2023-03-26T18:25:32.130Z,4.22
2023-03-26T18:28:01.967Z,4.13
2023-03-26T18:30:29.318Z,5.78
2023-03-26T18:33:11.928Z,7.43
2023-03-26T18:35:42.194Z,3.87
2023-03-26T18:38:14.067Z,4.13
2023-03-26T18:40:43.020Z,4.28
2023-03-26T18:43:28.816Z,3.80
2023-03-26T18:46:01.310Z,3.45
2023-03-26T18:48:28.911Z,2.20
2023-03-26T18:51:05.874Z,5.78
2023-03-26T18:53:39.880Z,7.15
2023-03-26T18:56:29.850Z,5.47
2023-03-26T18:58:59.152Z,7.47
2023-03-26T19:01:30.522Z,5.77
2023-03-26T19:04:02.081Z,8.00
2023-03-26T19:06:28.902Z,6.70
2023-03-26T19:08:57.504Z,6.43
2023-03-26T19:11:26.131Z,6.60
2023-03-26T19:14:03.881Z,5.07
2023-03-26T19:16:37.684Z,3.63
2023-03-26T19:19:07.490Z,5.57
2023-03-26T19:21:35.682Z,6.07
2023-03-26T19:24:03.903Z,4.90
2023-03-26T19:26:31.479Z,7.57
2023-03-26T19:28:58.265Z,6.82
2023-03-26T19:31:34.137Z,5.30
2023-03-26T19:34:20.320Z,3.47
2023-03-26T19:37:00.969Z,3.38
2023-03-26T19:39:41.559Z,7.10
2023-03-26T19:42:17.730Z,4.63
2023-03-26T19:44:44.760Z,5.18
2023-03-26T19:47:26.756Z,5.07
2023-03-26T19:50:23.348Z,6.47
2023-03-26T19:53:28.472Z,4.93
2023-03-26T19:55:57.406Z,5.85
2023-03-26T19:58:26.676Z,2.60
2023-03-26T20:00:53.257Z,6.50
2023-03-26T20:03:30.328Z,8.18
2023-03-26T20:05:56.847Z,5.17
2023-03-26T20:08:27.028Z,3.03
2023-03-26T20:10:56.290Z,7.50
2023-03-26T20:13:22.793Z,4.35
2023-03-26T20:16:05.173Z,5.95
2023-03-26T20:18:33.203Z,6.13
2023-03-26T20:20:59.576Z,2.53
2023-03-26T20:23:28.843Z,3.50
2023-03-26T20:25:55.616Z,5.18
2023-03-26T20:28:22.242Z,4.90
2023-03-26T20:30:50.030Z,3.53
2023-03-26T20:33:26.778Z,2.28
2023-03-26T20:35:55.395Z,2.95
2023-03-26T20:38:36.601Z,4.22
2023-03-26T20:41:04.138Z,3.42
2023-03-26T20:43:30.915Z,5.20
2023-03-26T20:45:58.514Z,4.60
2023-03-26T20:48:27.076Z,5.20
2023-03-26T20:50:54.096Z,6.03
2023-03-26T20:53:20.722Z,2.58
2023-03-26T20:55:47.952Z,5.87
2023-03-26T20:58:31.103Z,5.15
2023-03-26T21:01:01.474Z,8.52
2023-03-26T21:03:28.039Z,3.95
2023-03-26T21:05:54.458Z,3.17
2023-03-26T21:08:22.243Z,4.57
2023-03-26T21:10:48.885Z,2.72
2023-03-26T21:13:38.945Z,3.45
2023-03-26T21:16:06.499Z,6.32
2023-03-26T21:18:33.495Z,3.85
2023-03-26T21:21:26.120Z,7.03
2023-03-26T21:24:00.226Z,7.60
2023-03-26T21:26:34.666Z,8.98
2023-03-26T21:29:08.704Z,3.97
2023-03-26T21:31:37.952Z,3.20
2023-03-26T21:34:05.468Z,4.23
2023-03-26T21:36:32.653Z,5.82
2023-03-26T21:38:59.567Z,3.05
2023-03-26T21:41:41.160Z,3.58
2023-03-26T21:44:08.544Z,7.35
2023-03-26T21:46:35.413Z,3.50
2023-03-26T21:49:02.664Z,2.42
2023-03-26T21:51:29.471Z,3.92
2023-03-26T21:53:56.277Z,9.25
2023-03-26T21:56:38.641Z,5.75
2023-03-26T21:59:35.502Z,6.83
2023-03-26T22:02:26.904Z,7.15
2023-03-26T22:05:17.022Z,6.43
2023-03-26T22:07:56.046Z,5.07
2023-03-26T22:10:23.027Z,5.32
2023-03-26T22:12:50.058Z,5.43
2023-03-26T22:15:19.122Z,5.95
2023-03-26T22:17:53.622Z,7.68
2023-03-26T22:20:24.427Z,6.05
2023-03-26T22:22:53.088Z,5.28
2023-03-26T22:25:20.902Z,3.50
2023-03-26T22:27:48.568Z,2.55
2023-03-26T22:30:15.690Z,5.53
2023-03-26T22:32:43.303Z,6.57
2023-03-26T22:35:09.796Z,1.30
2023-03-26T22:37:37.133Z,3.57
2023-03-26T22:40:13.614Z,4.65
2023-03-26T22:42:41.291Z,3.80
2023-03-26T22:45:09.437Z,5.95
2023-03-26T22:47:36.009Z,3.90
2023-03-26T22:50:04.155Z,4.17
2023-03-26T22:52:31.337Z,15.10
2023-03-26T22:54:57.884Z,7.05
2023-03-26T22:57:24.456Z,3.72
2023-03-26T22:59:52.045Z,6.03
2023-03-26T23:02:19.321Z,5.73
2023-03-26T23:04:47.761Z,4.82
2023-03-26T23:07:14.550Z,3.08
2023-03-26T23:09:41.596Z,3.75
2023-03-26T23:12:08.228Z,4.20
2023-03-26T23:14:34.673Z,3.87
2023-03-26T23:17:01.538Z,5.75
2023-03-26T23:19:30.108Z,2.17
2023-03-26T23:21:57.539Z,2.97
2023-03-26T23:24:26.280Z,6.15
2023-03-26T23:26:53.152Z,2.27
2023-03-26T23:29:19.869Z,5.07
2023-03-26T23:31:46.552Z,3.35
2023-03-26T23:34:13.549Z,6.35
2023-03-26T23:36:40.881Z,4.53
2023-03-26T23:39:09.004Z,4.63
2023-03-26T23:41:35.386Z,6.30
2023-03-26T23:44:01.757Z,1.63
2023-03-26T23:46:34.811Z,2.70
2023-03-26T23:49:04.736Z,2.75
2023-03-26T23:51:31.687Z,5.53
2023-03-26T23:53:58.435Z,2.17
2023-03-26T23:56:24.917Z,3.58
2023-03-26T23:58:51.363Z,4.28
